Time;durP1;ratioP1;P1;durP2;ratioP2;P2;SDS_P1;SDS_P2;PMS_P1;PMS_P2;Temp;Humidity;BMP_temperature;BMP_pressure;BME280_temperature;BME280_humidity;BME280_pressure;Samples;Min_cycle;Max_cycle;Signal;HPM_P1;HPM_P2
2023/06/12 00:01:17;;;;;;;33.90;22.88;;;18.60;99.90;;;;;;5035886;28;20026;-96
2023/06/12 00:03:43;;;;;;;37.10;23.58;;;18.60;99.90;;;;;;5035362;28;20030;-95
2023/06/12 00:06:10;;;;;;;35.47;23.88;;;18.60;99.90;;;;;;5035655;28;20037;-94
2023/06/12 00:08:41;;;;;;;40.25;23.80;;;18.60;99.90;;;;;;5034532;28;20055;-94
2023/06/12 00:11:09;;;;;;;24.83;17.77;;;18.60;99.90;;;;;;5034851;28;20022;-96
2023/06/12 00:13:36;;;;;;;34.45;23.55;;;18.60;99.90;;;;;;5034548;28;20508;-94
2023/06/12 00:16:02;;;;;;;35.80;23.77;;;18.70;99.90;;;;;;5031153;28;20021;-95
2023/06/12 00:18:28;;;;;;;44.40;26.38;;;18.70;99.90;;;;;;5034442;28;20491;-92
2023/06/12 00:20:54;;;;;;;30.77;21.58;;;18.70;99.90;;;;;;5034241;28;20040;-93
2023/06/12 00:23:19;;;;;;;39.42;26.88;;;18.70;99.90;;;;;;5033902;28;20113;-95
2023/06/12 00:25:45;;;;;;;39.50;26.38;;;18.70;99.90;;;;;;5034750;28;20028;-96
2023/06/12 00:28:11;;;;;;;35.08;23.88;;;18.70;99.90;;;;;;5035082;28;20025;-94
2023/06/12 00:30:36;;;;;;;36.15;25.58;;;18.60;99.90;;;;;;5034284;28;20381;-93
2023/06/12 00:33:02;;;;;;;45.45;29.88;;;18.60;99.90;;;;;;5034097;28;20037;-92
2023/06/12 00:35:28;;;;;;;42.10;27.15;;;18.60;99.90;;;;;;5033951;28;20033;-94
2023/06/12 00:37:55;;;;;;;35.97;24.33;;;18.50;99.90;;;;;;5033748;28;20129;-92
2023/06/12 00:40:20;;;;;;;36.42;25.65;;;18.50;99.90;;;;;;5034329;28;20022;-93
2023/06/12 00:42:50;;;;;;;37.10;24.20;;;18.40;99.90;;;;;;5033632;28;20029;-92
2023/06/12 00:45:21;;;;;;;31.90;23.95;;;18.30;99.90;;;;;;5034018;28;20029;-92
2023/06/12 00:47:52;;;;;;;33.60;20.95;;;18.20;99.90;;;;;;5033704;28;20128;-93
2023/06/12 00:50:19;;;;;;;33.50;21.35;;;18.10;99.90;;;;;;5033527;28;20422;-94
2023/06/12 00:52:48;;;;;;;33.88;23.77;;;18.10;99.90;;;;;;5033543;28;20029;-93
2023/06/12 00:55:14;;;;;;;35.47;25.40;;;18.00;99.90;;;;;;5033975;28;20033;-94
2023/06/12 00:57:44;;;;;;;29.63;21.02;;;18.00;99.90;;;;;;5033698;28;20074;-94
2023/06/12 01:00:11;;;;;;;33.92;25.88;;;18.00;99.90;;;;;;5034920;28;20032;-94
2023/06/12 01:02:42;;;;;;;40.47;25.77;;;18.00;99.90;;;;;;5033715;28;20143;-94
2023/06/12 01:05:11;;;;;;;32.97;22.27;;;18.00;99.90;;;;;;5033700;28;20032;-92
2023/06/12 01:07:58;;;;;;;37.55;26.23;;;18.00;99.90;;;;;;5041098;28;20275;-92
2023/06/12 01:10:33;;;;;;;33.92;23.45;;;18.00;99.90;;;;;;5036508;28;20110;-92
2023/06/12 01:12:59;;;;;;;38.88;25.40;;;17.90;99.90;;;;;;5033308;28;20099;-92
2023/06/12 01:15:25;;;;;;;40.88;26.15;;;17.90;99.90;;;;;;5035194;28;20029;-93
2023/06/12 01:17:51;;;;;;;35.97;25.48;;;17.90;99.90;;;;;;5032581;28;20037;-93
2023/06/12 01:20:17;;;;;;;38.67;27.13;;;17.90;99.90;;;;;;5031979;28;20499;-94
2023/06/12 01:22:50;;;;;;;39.25;26.23;;;18.00;99.90;;;;;;5031363;28;20045;-93
2023/06/12 01:25:35;;;;;;;41.65;26.75;;;17.90;99.90;;;;;;5032809;28;20026;-93
2023/06/12 01:28:21;;;;;;;30.80;20.60;;;17.90;99.90;;;;;;5031585;28;20029;-94
2023/06/12 01:31:01;;;;;;;43.47;26.20;;;17.90;99.90;;;;;;5031810;28;20029;-94
2023/06/12 01:33:34;;;;;;;42.67;26.70;;;17.90;99.90;;;;;;5031665;28;20042;-93
2023/06/12 01:36:01;;;;;;;40.95;27.23;;;17.90;99.90;;;;;;5032083;28;20084;-94
2023/06/12 01:38:34;;;;;;;37.15;26.25;;;17.80;99.90;;;;;;5032415;28;20107;-93
2023/06/12 01:41:01;;;;;;;37.38;25.80;;;17.80;99.90;;;;;;5032620;28;20022;-95
2023/06/12 01:43:27;;;;;;;30.92;23.17;;;17.80;99.90;;;;;;5032244;28;20488;-94
2023/06/12 01:45:53;;;;;;;35.28;24.08;;;17.80;99.90;;;;;;5032445;28;20032;-95
2023/06/12 01:48:18;;;;;;;37.03;25.65;;;17.70;99.90;;;;;;5032369;28;20025;-93
2023/06/12 01:50:44;;;;;;;35.63;23.98;;;17.70;99.90;;;;;;5032453;28;20033;-92
2023/06/12 01:53:16;;;;;;;35.78;26.58;;;17.70;99.90;;;;;;5034003;28;20049;-92
2023/06/12 01:55:42;;;;;;;31.13;21.67;;;17.70;99.90;;;;;;5032484;28;20502;-93
2023/06/12 01:58:08;;;;;;;36.53;24.77;;;17.70;99.90;;;;;;5032504;28;20021;-94
2023/06/12 02:00:35;;;;;;;40.38;26.60;;;17.60;99.90;;;;;;5032223;28;20029;-91
2023/06/12 02:03:01;;;;;;;34.33;25.23;;;17.60;99.90;;;;;;5031683;28;20112;-92
2023/06/12 02:05:27;;;;;;;37.67;26.10;;;17.60;99.90;;;;;;5031536;28;20142;-93
2023/06/12 02:07:53;;;;;;;32.42;24.25;;;17.60;99.90;;;;;;5031697;28;20022;-94
2023/06/12 02:10:19;;;;;;;37.63;25.92;;;17.60;99.90;;;;;;5033071;28;20353;-92
2023/06/12 02:12:45;;;;;;;36.55;24.00;;;17.50;99.90;;;;;;5032259;28;20350;-93
2023/06/12 02:15:13;;;;;;;30.30;22.25;;;17.50;99.90;;;;;;5029741;28;20038;-92
2023/06/12 02:17:39;;;;;;;34.17;25.33;;;17.50;99.90;;;;;;5032154;28;20032;-94
2023/06/12 02:20:05;;;;;;;35.92;23.85;;;17.50;99.90;;;;;;5032884;28;20065;-93
2023/06/12 02:22:31;;;;;;;37.90;25.80;;;17.50;99.90;;;;;;5034852;28;20034;-93
2023/06/12 02:24:57;;;;;;;42.45;26.15;;;17.40;99.90;;;;;;5041978;28;20033;-95
2023/06/12 02:27:23;;;;;;;32.80;23.77;;;17.40;99.90;;;;;;5046736;28;20132;-88
2023/06/12 02:29:48;;;;;;;24.08;17.42;;;17.30;99.90;;;;;;5047222;28;20028;-89
2023/06/12 02:32:14;;;;;;;33.22;22.88;;;17.30;99.90;;;;;;5046367;28;20029;-91
2023/06/12 02:34:40;;;;;;;28.25;21.15;;;17.30;99.90;;;;;;5046719;28;20036;-93
2023/06/12 02:37:09;;;;;;;27.70;21.08;;;17.30;99.90;;;;;;5047867;28;20032;-94
2023/06/12 02:39:35;;;;;;;28.52;21.13;;;17.30;99.90;;;;;;5039999;28;20034;-93
2023/06/12 02:42:01;;;;;;;33.45;23.70;;;17.30;99.90;;;;;;5036201;28;20052;-95
2023/06/12 02:44:27;;;;;;;32.28;23.33;;;17.30;99.90;;;;;;5035407;28;20033;-93
2023/06/12 02:46:58;;;;;;;34.83;23.92;;;17.40;99.90;;;;;;5035510;28;20385;-93
2023/06/12 02:49:29;;;;;;;37.95;23.08;;;17.40;99.90;;;;;;5035362;28;20383;-94
2023/06/12 02:51:55;;;;;;;33.47;22.90;;;17.30;99.90;;;;;;5035123;28;20120;-94
2023/06/12 02:54:22;;;;;;;32.67;22.10;;;17.40;99.90;;;;;;5035588;28;20127;-92
2023/06/12 02:56:48;;;;;;;37.58;23.95;;;17.40;99.90;;;;;;5041652;28;20022;-93
2023/06/12 02:59:16;;;;;;;31.90;22.58;;;17.30;99.90;;;;;;5042150;28;20040;-93
2023/06/12 03:01:45;;;;;;;32.33;24.58;;;17.30;99.90;;;;;;5035095;28;20508;-93
2023/06/12 03:04:18;;;;;;;26.50;19.58;;;17.30;99.90;;;;;;5036073;28;20040;-95
2023/06/12 03:06:44;;;;;;;30.08;23.23;;;17.20;99.90;;;;;;5034967;28;20084;-94
2023/06/12 03:09:12;;;;;;;33.58;23.63;;;17.20;99.90;;;;;;5035590;28;20044;-94
2023/06/12 03:11:38;;;;;;;30.67;21.48;;;17.20;99.90;;;;;;5034457;28;20384;-93
2023/06/12 03:14:05;;;;;;;32.78;23.17;;;17.10;99.90;;;;;;5034657;28;20036;-95
2023/06/12 03:16:32;;;;;;;36.20;25.92;;;17.10;99.90;;;;;;5034612;28;20490;-93
2023/06/12 03:18:57;;;;;;;31.85;22.98;;;17.10;99.90;;;;;;5034928;28;20441;-94
2023/06/12 03:21:24;;;;;;;31.13;22.65;;;17.10;99.90;;;;;;5035015;28;20033;-93
2023/06/12 03:23:50;;;;;;;26.50;19.20;;;17.10;99.90;;;;;;5034253;28;20049;-94
2023/06/12 03:26:15;;;;;;;28.63;20.33;;;17.00;99.90;;;;;;5034843;28;20116;-95
2023/06/12 03:28:42;;;;;;;41.85;29.30;;;17.00;99.90;;;;;;5034896;28;20519;-94
2023/06/12 03:31:07;;;;;;;42.90;29.98;;;17.00;99.90;;;;;;5035028;28;20026;-94
2023/06/12 03:33:33;;;;;;;44.17;30.40;;;17.00;99.90;;;;;;5034874;28;20547;-95
2023/06/12 03:46:11;;;;;;;54.85;34.33;;;17.10;99.90;;;;;;5287709;22;20048;-94
2023/06/12 03:48:37;;;;;;;25.92;18.50;;;17.10;99.90;;;;;;5053444;28;20040;-94
2023/06/12 03:51:03;;;;;;;24.25;16.83;;;17.10;99.90;;;;;;5058384;28;20063;-93
2023/06/12 03:53:28;;;;;;;42.42;28.90;;;17.10;99.90;;;;;;5058795;28;20029;-95
2023/06/12 03:55:54;;;;;;;52.33;33.85;;;17.20;99.90;;;;;;5079009;28;20024;-94
2023/06/12 03:58:20;;;;;;;54.45;34.67;;;17.20;99.90;;;;;;5061933;28;20031;-93
2023/06/12 04:00:47;;;;;;;51.67;34.20;;;17.20;99.90;;;;;;5060900;28;20475;-94
2023/06/12 04:03:17;;;;;;;57.65;35.05;;;17.20;99.90;;;;;;5058126;28;20398;-94
2023/06/12 04:05:45;;;;;;;51.75;34.28;;;17.20;99.90;;;;;;5057938;28;20113;-96
2023/06/12 04:08:10;;;;;;;47.80;32.00;;;17.20;99.90;;;;;;5057907;28;20071;-95
2023/06/12 04:10:36;;;;;;;50.60;32.80;;;17.20;99.90;;;;;;5057763;28;20390;-95
2023/06/12 04:13:02;;;;;;;41.15;30.73;;;17.30;99.90;;;;;;5057539;28;20498;-93
2023/06/12 04:15:28;;;;;;;49.53;34.50;;;17.30;99.90;;;;;;5057443;28;20486;-94
2023/06/12 04:17:55;;;;;;;52.13;35.42;;;17.30;99.90;;;;;;5057290;28;20029;-94
2023/06/12 04:20:21;;;;;;;50.83;35.88;;;17.30;99.90;;;;;;5057546;28;20032;-96
2023/06/12 04:22:47;;;;;;;55.03;34.60;;;17.30;99.90;;;;;;5057497;28;20116;-95
2023/06/12 04:25:14;;;;;;;48.53;33.22;;;17.30;99.90;;;;;;5057393;28;20029;-96
2023/06/12 04:27:42;;;;;;;54.85;35.80;;;17.30;99.90;;;;;;5057346;28;20064;-94
2023/06/12 04:30:09;;;;;;;50.88;33.63;;;17.30;99.90;;;;;;5056992;28;20364;-95
2023/06/12 04:32:35;;;;;;;51.30;36.10;;;17.30;99.90;;;;;;5057255;28;20028;-95
2023/06/12 04:35:01;;;;;;;48.08;32.38;;;17.20;99.90;;;;;;5057433;28;20032;-94
2023/06/12 04:37:27;;;;;;;46.65;32.40;;;17.20;99.90;;;;;;5057247;28;20081;-96
2023/06/12 04:39:53;;;;;;;50.92;34.42;;;17.20;99.90;;;;;;5061363;28;20028;-95
2023/06/12 04:42:19;;;;;;;49.38;32.95;;;17.20;99.90;;;;;;5065127;28;20020;-96
2023/06/12 04:44:46;;;;;;;52.28;33.15;;;17.20;99.90;;;;;;5057415;28;20034;-94
2023/06/12 04:47:14;;;;;;;53.38;34.42;;;17.20;99.90;;;;;;5068737;28;20403;-94
2023/06/12 04:49:40;;;;;;;52.95;34.88;;;17.10;99.90;;;;;;5074654;28;20024;-95
2023/06/12 04:52:12;;;;;;;51.67;35.67;;;17.10;99.90;;;;;;5074387;28;20025;-94
2023/06/12 04:54:41;;;;;;;53.15;36.08;;;17.20;99.90;;;;;;5074166;28;20043;-96
2023/06/12 04:57:18;;;;;;;52.78;34.97;;;17.20;99.90;;;;;;5072964;28;20021;-96
2023/06/12 04:59:45;;;;;;;50.55;34.80;;;17.20;99.90;;;;;;5073252;28;20169;-95
2023/06/12 05:02:14;;;;;;;46.42;32.50;;;17.20;99.90;;;;;;5072677;28;20029;-95
2023/06/12 05:04:41;;;;;;;44.65;30.05;;;17.10;99.90;;;;;;5073264;28;20020;-95
2023/06/12 05:07:14;;;;;;;44.70;31.75;;;17.20;99.90;;;;;;5072667;28;20494;-95
2023/06/12 05:09:40;;;;;;;36.70;25.88;;;17.20;99.90;;;;;;5072375;28;20024;-94
2023/06/12 05:12:06;;;;;;;54.75;33.65;;;17.20;99.90;;;;;;5072482;28;20392;-94
2023/06/12 05:14:34;;;;;;;48.00;31.85;;;17.20;99.90;;;;;;5072422;28;20127;-93
2023/06/12 05:17:00;;;;;;;45.58;33.65;;;17.20;99.90;;;;;;5073261;28;20028;-93
2023/06/12 05:19:26;;;;;;;49.80;32.80;;;17.20;99.90;;;;;;5072675;28;20543;-93
2023/06/12 05:21:52;;;;;;;46.08;32.33;;;17.20;99.90;;;;;;5072488;28;20025;-96
2023/06/12 05:24:18;;;;;;;50.33;32.95;;;17.20;99.90;;;;;;5072342;28;20028;-94
2023/06/12 05:26:44;;;;;;;47.97;32.83;;;17.20;99.90;;;;;;5072763;28;20042;-96
2023/06/12 05:29:10;;;;;;;30.08;22.15;;;17.20;99.90;;;;;;5073950;28;20036;-93
2023/06/12 05:31:35;;;;;;;44.58;30.63;;;17.20;99.90;;;;;;5073145;28;20020;-96
2023/06/12 05:34:01;;;;;;;46.35;32.85;;;17.20;99.90;;;;;;5056008;28;20427;-94
2023/06/12 05:36:27;;;;;;;50.53;33.25;;;17.20;99.90;;;;;;5054786;28;20050;-94
2023/06/12 05:38:52;;;;;;;50.08;32.20;;;17.20;99.90;;;;;;5061998;28;20029;-96
2023/06/12 05:41:18;;;;;;;36.40;25.60;;;17.30;99.90;;;;;;5052568;28;20017;-96
2023/06/12 05:43:45;;;;;;;52.63;35.13;;;17.30;99.90;;;;;;5052684;28;20040;-96
2023/06/12 05:46:13;;;;;;;23.55;16.90;;;17.30;99.90;;;;;;5051880;28;20102;-94
2023/06/12 05:48:39;;;;;;;36.55;26.30;;;17.40;99.90;;;;;;5054418;28;20036;-94
2023/06/12 05:51:07;;;;;;;37.47;26.33;;;17.40;99.90;;;;;;5051625;28;20025;-95
2023/06/12 05:53:33;;;;;;;43.47;31.13;;;17.50;99.90;;;;;;5052673;28;20052;-96
2023/06/12 05:55:59;;;;;;;40.30;30.50;;;17.60;99.90;;;;;;5051320;28;20036;-96
2023/06/12 05:58:25;;;;;;;46.35;32.35;;;17.70;99.90;;;;;;5052664;28;20025;-95
2023/06/12 06:00:52;;;;;;;43.22;31.00;;;17.70;99.90;;;;;;5065397;28;20438;-95
2023/06/12 06:03:19;;;;;;;43.53;30.73;;;17.80;99.90;;;;;;5062330;28;20107;-94
2023/06/12 06:05:46;;;;;;;45.13;32.20;;;17.90;99.90;;;;;;5063008;28;20043;-94
2023/06/12 06:08:12;;;;;;;48.17;34.75;;;18.00;99.90;;;;;;5072435;28;20444;-95
2023/06/12 06:10:38;;;;;;;30.05;20.85;;;18.00;99.90;;;;;;5060614;28;20028;-95
2023/06/12 06:13:04;;;;;;;39.50;27.88;;;18.10;99.90;;;;;;5065359;28;20115;-93
2023/06/12 06:15:29;;;;;;;34.20;23.73;;;18.20;99.90;;;;;;5062988;28;20127;-96
2023/06/12 06:17:56;;;;;;;42.97;32.35;;;18.20;99.90;;;;;;5062883;28;20127;-93
2023/06/12 06:20:21;;;;;;;43.85;30.92;;;18.30;99.90;;;;;;5063194;28;20623;-95
2023/06/12 06:22:47;;;;;;;34.63;24.40;;;18.40;99.90;;;;;;5062677;28;20104;-94
2023/06/12 06:25:15;;;;;;;47.30;33.92;;;18.50;99.90;;;;;;5060006;28;20048;-95
2023/06/12 06:27:41;;;;;;;40.47;30.60;;;18.50;99.90;;;;;;5059798;28;20493;-96
2023/06/12 06:30:07;;;;;;;21.27;16.95;;;18.60;99.90;;;;;;5057824;28;20021;-95
2023/06/12 06:32:33;;;;;;;21.13;15.18;;;18.70;99.90;;;;;;5062523;28;20039;-94
2023/06/12 06:35:02;;;;;;;30.42;23.20;;;18.70;99.90;;;;;;5054816;28;20025;-93
2023/06/12 06:37:28;;;;;;;29.33;23.60;;;18.80;99.90;;;;;;5054644;28;20078;-94
2023/06/12 06:39:54;;;;;;;26.13;19.80;;;18.90;99.90;;;;;;5055704;28;20052;-93
2023/06/12 06:42:20;;;;;;;20.88;15.30;;;19.00;99.90;;;;;;5057003;28;20040;-93
2023/06/12 06:44:46;;;;;;;17.85;14.00;;;19.10;99.90;;;;;;5050980;28;20022;-93
2023/06/12 06:47:12;;;;;;;30.83;24.25;;;19.10;99.90;;;;;;5052184;28;20396;-93
2023/06/12 06:49:38;;;;;;;29.48;20.30;;;19.20;99.90;;;;;;5051193;28;20032;-94
2023/06/12 06:52:04;;;;;;;19.00;14.93;;;19.30;99.90;;;;;;5050039;28;20025;-95
2023/06/12 06:54:30;;;;;;;19.05;15.02;;;19.40;99.90;;;;;;5050958;28;20068;-94
2023/06/12 06:56:56;;;;;;;15.95;12.55;;;19.50;99.90;;;;;;5050770;28;20044;-94
2023/06/12 06:59:23;;;;;;;37.33;24.70;;;19.50;99.90;;;;;;5051125;28;20060;-94
2023/06/12 07:01:48;;;;;;;24.13;18.35;;;19.50;99.90;;;;;;5050815;28;20471;-94
2023/06/12 07:04:14;;;;;;;20.23;16.75;;;19.70;99.90;;;;;;5052360;28;20091;-94
2023/06/12 07:06:40;;;;;;;24.20;18.48;;;19.80;99.90;;;;;;5051260;28;20476;-95
2023/06/12 07:09:07;;;;;;;18.25;13.50;;;19.90;99.90;;;;;;5051486;28;20028;-94
2023/06/12 07:11:32;;;;;;;21.50;15.50;;;19.90;99.90;;;;;;5051494;28;20031;-93
2023/06/12 07:13:58;;;;;;;16.65;12.23;;;20.10;99.90;;;;;;5051525;28;20032;-93
2023/06/12 07:16:24;;;;;;;16.67;13.40;;;20.10;99.90;;;;;;5051316;28;20454;-94
2023/06/12 07:18:49;;;;;;;29.70;21.75;;;20.20;99.90;;;;;;5052052;28;20039;-94
2023/06/12 07:21:15;;;;;;;25.52;18.65;;;20.30;99.90;;;;;;5052723;28;20112;-93
2023/06/12 07:23:41;;;;;;;22.90;18.40;;;20.40;99.90;;;;;;5054606;28;20033;-95
2023/06/12 07:26:07;;;;;;;25.50;20.35;;;20.50;99.90;;;;;;5054280;28;20017;-94
2023/06/12 07:28:32;;;;;;;23.45;18.02;;;20.60;99.90;;;;;;5055181;28;20057;-93
2023/06/12 07:30:58;;;;;;;19.25;15.90;;;20.70;99.90;;;;;;5054918;28;20056;-93
2023/06/12 07:33:23;;;;;;;27.25;21.25;;;20.80;99.90;;;;;;5054406;28;20047;-95
2023/06/12 07:35:49;;;;;;;27.60;21.90;;;20.90;99.90;;;;;;5054532;28;20028;-93
2023/06/12 07:38:15;;;;;;;23.20;19.00;;;21.00;99.90;;;;;;5054018;28;20510;-93
2023/06/12 07:40:40;;;;;;;27.55;18.65;;;21.10;99.90;;;;;;5055841;28;20549;-93
2023/06/12 07:43:06;;;;;;;24.92;16.90;;;21.20;99.90;;;;;;5056069;28;20043;-93
2023/06/12 07:45:32;;;;;;;23.40;18.50;;;21.30;99.90;;;;;;5057234;28;20088;-92
2023/06/12 07:47:57;;;;;;;23.05;18.38;;;21.40;99.90;;;;;;5077059;28;20039;-93
2023/06/12 07:50:24;;;;;;;27.80;18.65;;;21.50;99.90;;;;;;5060967;28;20064;-94
2023/06/12 07:52:50;;;;;;;22.40;18.42;;;21.60;99.90;;;;;;5069585;28;20118;-93
2023/06/12 07:55:16;;;;;;;21.90;16.92;;;21.70;99.90;;;;;;5077172;28;20427;-95
2023/06/12 07:57:42;;;;;;;26.02;18.02;;;21.70;99.90;;;;;;5078102;28;20024;-95
2023/06/12 08:00:08;;;;;;;21.13;16.65;;;21.80;99.90;;;;;;5072446;28;20061;-95
2023/06/12 08:02:38;;;;;;;19.00;15.20;;;21.90;99.90;;;;;;5081432;28;20032;-94
2023/06/12 08:05:06;;;;;;;19.35;15.77;;;22.00;99.90;;;;;;5072214;28;20118;-94
2023/06/12 08:07:33;;;;;;;19.30;14.55;;;22.10;99.90;;;;;;5075623;28;20036;-93
2023/06/12 08:09:59;;;;;;;19.52;15.38;;;22.30;99.90;;;;;;5077794;28;20109;-94
2023/06/12 08:12:31;;;;;;;21.58;16.67;;;22.40;99.90;;;;;;5073565;28;20031;-94
2023/06/12 08:15:00;;;;;;;20.92;14.55;;;22.40;99.90;;;;;;5072681;28;20056;-93
2023/06/12 08:17:26;;;;;;;18.65;14.77;;;22.50;99.90;;;;;;5079196;28;20025;-93
2023/06/12 08:19:51;;;;;;;19.08;14.23;;;22.60;99.90;;;;;;5080115;28;20091;-94
2023/06/12 08:22:17;;;;;;;17.52;13.90;;;22.70;99.90;;;;;;5080552;28;20040;-94
2023/06/12 08:24:44;;;;;;;16.40;12.75;;;22.80;99.90;;;;;;5086978;28;20043;-94
2023/06/12 08:27:11;;;;;;;20.13;11.65;;;22.80;99.90;;;;;;5087828;28;20025;-95
2023/06/12 08:29:38;;;;;;;16.30;10.68;;;22.90;99.90;;;;;;5092891;28;20009;-92
2023/06/12 08:32:04;;;;;;;15.80;12.00;;;23.00;99.90;;;;;;5076098;28;20020;-95
2023/06/12 08:34:30;;;;;;;19.55;13.27;;;23.10;99.90;;;;;;5071528;28;20044;-93
2023/06/12 08:36:56;;;;;;;14.48;12.48;;;23.20;99.90;;;;;;5071453;28;20088;-96
2023/06/12 08:39:21;;;;;;;15.50;11.98;;;23.30;99.90;;;;;;5067660;28;20040;-94
2023/06/12 08:42:08;;;;;;;15.98;12.35;;;23.40;99.90;;;;;;5062133;28;20032;-95
2023/06/12 08:44:37;;;;;;;18.27;12.68;;;23.50;99.90;;;;;;5059999;28;20028;-95
2023/06/12 08:47:04;;;;;;;15.85;13.13;;;23.60;99.90;;;;;;5060513;28;20052;-94
2023/06/12 08:49:30;;;;;;;16.38;10.98;;;23.70;99.90;;;;;;5059472;28;20050;-94
2023/06/12 08:51:56;;;;;;;16.90;11.02;;;23.80;99.90;;;;;;5058421;28;20016;-95
2023/06/12 08:54:22;;;;;;;13.73;10.27;;;23.90;99.90;;;;;;5059035;28;20453;-94
2023/06/12 08:56:49;;;;;;;13.82;10.18;;;24.00;99.90;;;;;;5063260;28;20024;-95
2023/06/12 08:59:15;;;;;;;15.60;10.27;;;24.10;99.90;;;;;;5062990;28;20036;-93
2023/06/12 09:01:42;;;;;;;14.50;9.82;;;24.20;99.90;;;;;;5062218;28;20032;-94
2023/06/12 09:04:26;;;;;;;13.20;9.90;;;24.30;99.70;;;;;;5062771;28;20020;-94
2023/06/12 09:07:01;;;;;;;16.02;11.20;;;24.40;98.60;;;;;;5064738;28;20032;-94
2023/06/12 09:09:38;;;;;;;18.10;10.18;;;24.50;97.90;;;;;;5063755;28;20382;-95
2023/06/12 09:12:07;;;;;;;14.85;9.95;;;24.60;97.50;;;;;;5064563;28;20036;-93
2023/06/12 09:14:35;;;;;;;12.15;9.88;;;24.70;97.00;;;;;;5066003;28;20036;-94
2023/06/12 09:17:04;;;;;;;14.52;10.10;;;24.80;96.50;;;;;;5064087;28;20058;-94
2023/06/12 09:19:39;;;;;;;16.48;10.65;;;24.90;96.00;;;;;;5058427;28;20048;-95
2023/06/12 09:22:05;;;;;;;16.80;9.77;;;25.00;95.40;;;;;;5058347;28;20021;-96
2023/06/12 09:24:32;;;;;;;14.00;9.50;;;25.00;95.10;;;;;;5059047;28;20084;-94
2023/06/12 09:26:57;;;;;;;12.77;9.82;;;25.20;95.00;;;;;;5057079;28;20053;-94
2023/06/12 09:29:31;;;;;;;14.98;9.20;;;25.40;94.40;;;;;;5058829;28;20111;-94
2023/06/12 09:32:00;;;;;;;10.90;8.90;;;25.50;93.60;;;;;;5057943;28;20116;-94
2023/06/12 09:34:26;;;;;;;14.57;9.57;;;25.60;93.20;;;;;;5057557;28;20028;-95
2023/06/12 09:36:53;;;;;;;11.45;8.75;;;25.80;92.50;;;;;;5057493;28;20290;-94
2023/06/12 09:39:29;;;;;;;14.80;9.98;;;25.90;91.80;;;;;;5057670;28;20062;-94
2023/06/12 09:41:55;;;;;;;13.02;10.80;;;26.00;91.30;;;;;;5055726;28;20032;-96
2023/06/12 09:44:30;;;;;;;14.68;9.55;;;26.10;91.00;;;;;;5055604;28;20032;-95
2023/06/12 09:47:01;;;;;;;12.23;9.48;;;26.30;90.60;;;;;;5073175;28;20127;-95
2023/06/12 09:49:27;;;;;;;15.65;9.30;;;26.40;90.40;;;;;;5071825;28;20024;-95
2023/06/12 09:51:56;;;;;;;12.95;10.38;;;26.60;90.10;;;;;;5058200;28;20028;-95
2023/06/12 09:54:22;;;;;;;18.55;9.00;;;26.80;89.70;;;;;;5057230;28;20033;-95
2023/06/12 09:56:53;;;;;;;16.05;9.30;;;26.90;88.40;;;;;;5063695;28;20024;-96
2023/06/12 09:59:21;;;;;;;12.60;9.00;;;27.00;87.10;;;;;;5080103;28;20482;-96
2023/06/12 10:01:53;;;;;;;13.77;9.40;;;27.00;85.90;;;;;;5082376;28;20027;-96
2023/06/12 10:04:34;;;;;;;12.43;9.15;;;27.20;85.30;;;;;;5082133;28;20021;-95
2023/06/12 10:07:16;;;;;;;15.18;9.75;;;27.30;84.10;;;;;;5076702;28;20032;-96
2023/06/12 10:09:47;;;;;;;12.07;8.60;;;27.50;83.50;;;;;;5087044;28;20020;-95
2023/06/12 10:12:15;;;;;;;11.23;8.52;;;27.60;82.50;;;;;;5084520;28;20076;-96
2023/06/12 10:14:41;;;;;;;13.40;8.50;;;27.70;82.00;;;;;;5081365;28;20058;-96
2023/06/12 10:17:10;;;;;;;11.10;8.52;;;27.80;80.90;;;;;;5080130;28;20020;-96
2023/06/12 10:19:40;;;;;;;11.35;9.20;;;27.90;80.20;;;;;;5077945;28;20549;-96
2023/06/12 10:22:08;;;;;;;11.75;8.63;;;27.90;79.70;;;;;;5075969;28;20021;-95
2023/06/12 10:24:35;;;;;;;16.20;9.00;;;28.00;78.90;;;;;;5076319;28;20555;-95
2023/06/12 10:27:02;;;;;;;11.35;8.65;;;28.10;78.50;;;;;;5084627;28;20044;-96
2023/06/12 10:29:36;;;;;;;14.52;9.70;;;28.20;77.80;;;;;;5078655;28;20025;-94
2023/06/12 10:32:15;;;;;;;10.20;8.20;;;28.30;76.80;;;;;;5076076;28;20048;-95
2023/06/12 10:34:43;;;;;;;12.40;8.90;;;28.40;76.40;;;;;;5078492;28;20028;-96
2023/06/12 10:37:28;;;;;;;15.52;9.00;;;28.50;75.80;;;;;;5077789;28;20379;-94
2023/06/12 10:40:10;;;;;;;12.55;8.25;;;28.60;75.30;;;;;;5078240;28;20032;-95
2023/06/12 10:42:39;;;;;;;11.85;8.48;;;28.70;74.70;;;;;;5074139;28;20029;-95
2023/06/12 10:45:13;;;;;;;9.67;8.37;;;28.80;74.60;;;;;;5073126;28;20044;-96
2023/06/12 10:47:39;;;;;;;14.10;9.57;;;28.90;74.00;;;;;;5071817;28;20140;-94
2023/06/12 10:50:06;;;;;;;14.60;8.68;;;29.00;73.90;;;;;;5073199;28;20056;-95
2023/06/12 10:52:31;;;;;;;11.00;7.97;;;29.00;73.50;;;;;;5073453;28;20102;-96
2023/06/12 10:55:15;;;;;;;14.32;8.60;;;29.10;73.00;;;;;;5073576;28;20476;-94
2023/06/12 10:57:48;;;;;;;12.45;8.20;;;29.20;71.50;;;;;;5077902;28;20047;-96
2023/06/12 11:00:16;;;;;;;9.45;8.35;;;29.30;71.10;;;;;;5075824;28;20038;-95
2023/06/12 11:02:44;;;;;;;11.98;7.97;;;29.40;71.20;;;;;;5078117;28;20058;-93
2023/06/12 11:05:10;;;;;;;11.48;7.28;;;29.60;70.80;;;;;;5077003;28;20566;-95
2023/06/12 11:07:36;;;;;;;12.55;9.23;;;29.80;71.50;;;;;;5084202;28;20107;-96
2023/06/12 11:10:14;;;;;;;9.98;8.07;;;29.90;69.70;;;;;;5074526;28;20108;-96
2023/06/12 11:12:47;;;;;;;11.48;7.57;;;30.00;68.80;;;;;;5078836;28;20012;-96
2023/06/12 11:15:14;;;;;;;13.23;7.78;;;30.10;68.70;;;;;;5078496;28;20555;-95
2023/06/12 11:17:39;;;;;;;15.65;8.02;;;30.20;68.80;;;;;;5080387;28;20028;-96
2023/06/12 11:20:06;;;;;;;11.13;7.85;;;30.30;67.60;;;;;;5084018;28;20050;-96
2023/06/12 11:22:32;;;;;;;12.45;7.40;;;30.40;66.60;;;;;;5080341;28;20027;-94
2023/06/12 11:25:03;;;;;;;9.65;7.43;;;30.40;65.60;;;;;;5079659;28;20020;-95
2023/06/12 11:27:30;;;;;;;10.95;7.53;;;30.40;64.90;;;;;;5080251;28;20081;-96
2023/06/12 11:29:56;;;;;;;11.18;8.02;;;30.50;64.80;;;;;;5081844;28;20504;-96
2023/06/12 11:32:22;;;;;;;9.95;7.50;;;30.60;64.40;;;;;;5084966;28;20030;-96
2023/06/12 11:34:51;;;;;;;11.45;7.60;;;30.70;64.60;;;;;;5089272;28;20068;-94
2023/06/12 11:37:20;;;;;;;12.02;8.25;;;30.90;64.60;;;;;;5087906;28;20024;-94
2023/06/12 11:39:46;;;;;;;11.70;7.10;;;30.90;64.30;;;;;;5093312;28;20028;-94
2023/06/12 11:42:13;;;;;;;12.63;7.57;;;31.00;64.10;;;;;;5091210;28;20023;-94
2023/06/12 11:44:39;;;;;;;9.20;6.43;;;31.00;64.00;;;;;;5086380;28;20028;-95
2023/06/12 11:47:08;;;;;;;8.52;7.57;;;31.20;63.30;;;;;;5081747;28;20048;-96
2023/06/12 11:49:37;;;;;;;11.23;8.13;;;31.20;63.20;;;;;;5080091;28;20032;-96
2023/06/12 11:52:05;;;;;;;9.45;7.50;;;31.40;63.00;;;;;;5074738;28;20036;-94
2023/06/12 11:54:31;;;;;;;13.38;8.48;;;31.60;62.50;;;;;;5079050;28;20131;-95
2023/06/12 11:57:03;;;;;;;12.30;8.50;;;31.70;61.90;;;;;;5078878;28;20051;-95
2023/06/12 11:59:37;;;;;;;14.23;8.57;;;31.70;61.40;;;;;;5082763;28;20024;-95
2023/06/12 12:02:03;;;;;;;13.68;7.80;;;31.80;61.00;;;;;;5084089;28;20028;-96
2023/06/12 12:04:30;;;;;;;10.40;7.68;;;31.80;61.20;;;;;;5082152;28;20020;-96
2023/06/12 12:06:57;;;;;;;10.13;8.00;;;31.80;61.10;;;;;;5081562;28;20045;-96
2023/06/12 12:09:27;;;;;;;12.85;8.48;;;31.90;60.80;;;;;;5084505;28;20020;-95
2023/06/12 12:11:53;;;;;;;10.88;7.30;;;32.00;60.60;;;;;;5083941;28;20024;-94
2023/06/12 12:14:19;;;;;;;17.63;7.43;;;32.10;60.90;;;;;;5088315;28;20100;-94
2023/06/12 12:16:45;;;;;;;10.02;7.65;;;32.20;61.20;;;;;;5092914;28;20076;-94
2023/06/12 12:19:27;;;;;;;15.18;7.80;;;32.40;60.60;;;;;;5092602;28;20103;-94
2023/06/12 12:21:56;;;;;;;8.10;7.10;;;32.40;59.50;;;;;;5092474;28;20016;-94
2023/06/12 12:24:22;;;;;;;8.80;7.90;;;32.40;59.40;;;;;;5085694;28;20033;-94
2023/06/12 12:26:52;;;;;;;10.90;7.68;;;32.50;59.20;;;;;;5080863;28;20022;-94
2023/06/12 12:29:18;;;;;;;12.70;8.00;;;32.50;58.70;;;;;;5080681;28;20028;-95
2023/06/12 12:31:45;;;;;;;10.13;7.90;;;32.50;57.80;;;;;;5080705;28;20016;-94
2023/06/12 12:34:10;;;;;;;11.30;8.13;;;32.50;57.80;;;;;;5083903;28;20421;-93
2023/06/12 12:36:36;;;;;;;11.60;7.97;;;32.60;58.70;;;;;;5082475;28;20066;-93
2023/06/12 12:39:03;;;;;;;12.90;7.95;;;32.70;58.80;;;;;;5091688;28;20028;-92
2023/06/12 12:41:29;;;;;;;10.40;7.60;;;32.90;58.70;;;;;;5104229;28;20040;-92
2023/06/12 12:43:55;;;;;;;11.75;8.27;;;33.10;58.50;;;;;;5112566;28;20016;-92